sensor_id;sensor_type;location;lat;lon;timestamp;temperature;humidity
18721;DHT22;9489;50.948;3.114;2022-08-21T13:28:35;24.70;99.90
18721;DHT22;9489;50.948;3.114;2022-08-21T13:31:07;24.50;99.90
18721;DHT22;9489;50.948;3.114;2022-08-21T13:33:37;24.50;99.90
18721;DHT22;9489;50.948;3.114;2022-08-21T13:36:31;24.50;99.90
18721;DHT22;9489;50.948;3.114;2022-08-21T13:38:59;24.50;99.90
18721;DHT22;9489;50.948;3.114;2022-08-21T13:41:28;24.60;99.90
18721;DHT22;9489;50.948;3.114;2022-08-21T13:44:01;24.70;99.90
18721;DHT22;9489;50.948;3.114;2022-08-21T13:46:32;24.60;99.90
18721;DHT22;9489;50.948;3.114;2022-08-21T13:49:00;24.60;99.90
18721;DHT22;9489;50.948;3.114;2022-08-21T13:51:29;24.70;99.90
18721;DHT22;9489;50.948;3.114;2022-08-21T13:53:55;24.60;99.90
18721;DHT22;9489;50.948;3.114;2022-08-21T13:56:23;24.70;99.90
18721;DHT22;9489;50.948;3.114;2022-08-21T13:58:51;24.90;99.90
18721;DHT22;9489;50.948;3.114;2022-08-21T14:01:50;25.00;99.90
18721;DHT22;9489;50.948;3.114;2022-08-21T14:04:22;25.00;99.90
18721;DHT22;9489;50.948;3.114;2022-08-21T14:06:49;25.00;99.90
18721;DHT22;9489;50.948;3.114;2022-08-21T14:11:57;25.20;99.90
18721;DHT22;9489;50.948;3.114;2022-08-21T14:14:28;25.50;99.90
18721;DHT22;9489;50.948;3.114;2022-08-21T14:16:59;25.70;99.90
18721;DHT22;9489;50.948;3.114;2022-08-21T14:19:40;25.90;99.90
18721;DHT22;9489;50.948;3.114;2022-08-21T14:27:29;26.80;99.90
18721;DHT22;9489;50.948;3.114;2022-08-21T14:30:03;26.90;99.90
18721;DHT22;9489;50.948;3.114;2022-08-21T14:32:37;26.90;99.90
18721;DHT22;9489;50.948;3.114;2022-08-21T14:35:03;26.80;99.90
18721;DHT22;9489;50.948;3.114;2022-08-21T14:37:28;26.80;99.90
18721;DHT22;9489;50.948;3.114;2022-08-21T14:39:54;26.80;99.90
18721;DHT22;9489;50.948;3.114;2022-08-21T14:42:20;27.00;99.90
18721;DHT22;9489;50.948;3.114;2022-08-21T14:44:46;27.20;99.90
18721;DHT22;9489;50.948;3.114;2022-08-21T14:47:12;26.80;99.90
18721;DHT22;9489;50.948;3.114;2022-08-21T14:49:38;26.40;99.90
18721;DHT22;9489;50.948;3.114;2022-08-21T14:52:04;26.30;99.90
18721;DHT22;9489;50.948;3.114;2022-08-21T14:54:31;26.70;99.90
18721;DHT22;9489;50.948;3.114;2022-08-21T14:56:59;27.00;99.90
18721;DHT22;9489;50.948;3.114;2022-08-21T14:59:25;26.90;99.90
18721;DHT22;9489;50.948;3.114;2022-08-21T15:01:51;26.80;99.90
18721;DHT22;9489;50.948;3.114;2022-08-21T15:04:17;26.60;99.90
18721;DHT22;9489;50.948;3.114;2022-08-21T15:06:44;26.60;99.90
18721;DHT22;9489;50.948;3.114;2022-08-21T15:09:09;26.60;99.90
18721;DHT22;9489;50.948;3.114;2022-08-21T15:11:35;26.30;99.90
18721;DHT22;9489;50.948;3.114;2022-08-21T15:14:03;26.00;99.90
18721;DHT22;9489;50.948;3.114;2022-08-21T15:16:29;25.80;99.90
18721;DHT22;9489;50.948;3.114;2022-08-21T15:18:57;25.90;99.90
18721;DHT22;9489;50.948;3.114;2022-08-21T15:21:22;25.90;99.90
18721;DHT22;9489;50.948;3.114;2022-08-21T15:23:48;25.80;99.90
18721;DHT22;9489;50.948;3.114;2022-08-21T15:26:14;26.00;99.90
18721;DHT22;9489;50.948;3.114;2022-08-21T15:28:40;26.10;99.90
18721;DHT22;9489;50.948;3.114;2022-08-21T15:31:05;26.20;99.90
18721;DHT22;9489;50.948;3.114;2022-08-21T15:33:31;26.10;99.90
18721;DHT22;9489;50.948;3.114;2022-08-21T15:35:57;26.00;99.90
18721;DHT22;9489;50.948;3.114;2022-08-21T15:38:23;25.80;99.90
18721;DHT22;9489;50.948;3.114;2022-08-21T15:40:50;25.70;99.90
18721;DHT22;9489;50.948;3.114;2022-08-21T15:43:23;25.50;99.90
18721;DHT22;9489;50.948;3.114;2022-08-21T15:45:49;25.30;99.90
18721;DHT22;9489;50.948;3.114;2022-08-21T15:48:15;25.00;99.90
18721;DHT22;9489;50.948;3.114;2022-08-21T15:50:41;24.90;99.90
18721;DHT22;9489;50.948;3.114;2022-08-21T15:53:06;24.70;99.90
18721;DHT22;9489;50.948;3.114;2022-08-21T15:55:33;24.60;99.90
18721;DHT22;9489;50.948;3.114;2022-08-21T15:57:59;24.70;99.90
18721;DHT22;9489;50.948;3.114;2022-08-21T16:00:25;24.60;99.90
18721;DHT22;9489;50.948;3.114;2022-08-21T16:02:56;24.60;99.90
18721;DHT22;9489;50.948;3.114;2022-08-21T16:05:22;24.70;99.90
18721;DHT22;9489;50.948;3.114;2022-08-21T16:07:49;24.60;99.90
18721;DHT22;9489;50.948;3.114;2022-08-21T16:10:18;24.60;99.90
18721;DHT22;9489;50.948;3.114;2022-08-21T16:12:49;24.60;99.90
18721;DHT22;9489;50.948;3.114;2022-08-21T16:15:16;24.40;99.90
18721;DHT22;9489;50.948;3.114;2022-08-21T16:17:44;24.50;99.90
18721;DHT22;9489;50.948;3.114;2022-08-21T16:20:35;24.30;99.90
18721;DHT22;9489;50.948;3.114;2022-08-21T16:23:00;24.30;99.90
18721;DHT22;9489;50.948;3.114;2022-08-21T16:25:25;24.30;99.90
18721;DHT22;9489;50.948;3.114;2022-08-21T16:27:55;24.20;99.90
18721;DHT22;9489;50.948;3.114;2022-08-21T16:30:22;24.20;99.90
18721;DHT22;9489;50.948;3.114;2022-08-21T16:32:48;24.20;99.90
18721;DHT22;9489;50.948;3.114;2022-08-21T16:35:17;24.20;99.90
18721;DHT22;9489;50.948;3.114;2022-08-21T16:37:44;24.20;99.90
18721;DHT22;9489;50.948;3.114;2022-08-21T16:40:10;24.30;99.90
18721;DHT22;9489;50.948;3.114;2022-08-21T16:42:37;24.30;99.90
18721;DHT22;9489;50.948;3.114;2022-08-21T16:45:11;24.30;99.90
18721;DHT22;9489;50.948;3.114;2022-08-21T16:47:38;24.20;99.90
18721;DHT22;9489;50.948;3.114;2022-08-21T16:50:04;24.10;99.90
18721;DHT22;9489;50.948;3.114;2022-08-21T16:52:30;24.10;99.90
18721;DHT22;9489;50.948;3.114;2022-08-21T16:54:56;24.00;99.90
18721;DHT22;9489;50.948;3.114;2022-08-21T16:57:23;23.90;99.90
18721;DHT22;9489;50.948;3.114;2022-08-21T16:59:49;23.90;99.90
18721;DHT22;9489;50.948;3.114;2022-08-21T17:02:32;23.90;99.90
18721;DHT22;9489;50.948;3.114;2022-08-21T17:04:59;23.80;99.90
18721;DHT22;9489;50.948;3.114;2022-08-21T17:07:27;23.60;99.90
18721;DHT22;9489;50.948;3.114;2022-08-21T17:09:54;23.50;99.90
18721;DHT22;9489;50.948;3.114;2022-08-21T17:12:20;23.50;99.90
18721;DHT22;9489;50.948;3.114;2022-08-21T17:14:46;23.40;99.90
18721;DHT22;9489;50.948;3.114;2022-08-21T17:17:13;23.40;99.90
18721;DHT22;9489;50.948;3.114;2022-08-21T17:19:40;23.20;99.90
18721;DHT22;9489;50.948;3.114;2022-08-21T17:22:07;23.10;99.90
18721;DHT22;9489;50.948;3.114;2022-08-21T17:24:34;23.20;99.90
18721;DHT22;9489;50.948;3.114;2022-08-21T17:27:00;23.10;99.90
18721;DHT22;9489;50.948;3.114;2022-08-21T17:29:36;23.20;99.90
18721;DHT22;9489;50.948;3.114;2022-08-21T17:32:07;23.10;99.90
18721;DHT22;9489;50.948;3.114;2022-08-21T17:34:32;23.00;99.90
18721;DHT22;9489;50.948;3.114;2022-08-21T17:36:59;23.00;99.90
18721;DHT22;9489;50.948;3.114;2022-08-21T17:39:24;22.90;99.90
18721;DHT22;9489;50.948;3.114;2022-08-21T17:41:50;22.90;99.90
18721;DHT22;9489;50.948;3.114;2022-08-21T17:44:19;23.00;99.90
18721;DHT22;9489;50.948;3.114;2022-08-21T17:46:45;23.00;99.90
18721;DHT22;9489;50.948;3.114;2022-08-21T17:49:11;23.00;99.90
18721;DHT22;9489;50.948;3.114;2022-08-21T17:51:39;22.90;99.90
18721;DHT22;9489;50.948;3.114;2022-08-21T17:54:05;22.90;99.90
18721;DHT22;9489;50.948;3.114;2022-08-21T17:56:33;22.80;99.90
18721;DHT22;9489;50.948;3.114;2022-08-21T17:58:59;22.70;99.90
18721;DHT22;9489;50.948;3.114;2022-08-21T18:01:28;22.70;99.90
18721;DHT22;9489;50.948;3.114;2022-08-21T18:03:56;22.60;99.90
18721;DHT22;9489;50.948;3.114;2022-08-21T18:06:22;22.60;99.90
18721;DHT22;9489;50.948;3.114;2022-08-21T18:08:48;22.60;99.90
18721;DHT22;9489;50.948;3.114;2022-08-21T18:11:15;22.60;99.90
18721;DHT22;9489;50.948;3.114;2022-08-21T18:13:41;22.60;99.90
18721;DHT22;9489;50.948;3.114;2022-08-21T18:16:07;22.60;99.90
18721;DHT22;9489;50.948;3.114;2022-08-21T18:18:40;22.50;99.90
18721;DHT22;9489;50.948;3.114;2022-08-21T18:21:06;22.50;99.90
18721;DHT22;9489;50.948;3.114;2022-08-21T18:23:32;22.50;99.90
18721;DHT22;9489;50.948;3.114;2022-08-21T18:25:58;22.40;99.90
18721;DHT22;9489;50.948;3.114;2022-08-21T18:28:24;22.40;99.90
18721;DHT22;9489;50.948;3.114;2022-08-21T18:30:50;22.30;99.90
18721;DHT22;9489;50.948;3.114;2022-08-21T18:33:19;22.20;99.90
18721;DHT22;9489;50.948;3.114;2022-08-21T18:35:45;22.10;99.90
18721;DHT22;9489;50.948;3.114;2022-08-21T18:38:11;22.20;99.90
18721;DHT22;9489;50.948;3.114;2022-08-21T18:40:39;22.10;99.90
18721;DHT22;9489;50.948;3.114;2022-08-21T18:43:09;22.00;99.90
18721;DHT22;9489;50.948;3.114;2022-08-21T18:45:36;22.00;99.90
18721;DHT22;9489;50.948;3.114;2022-08-21T18:48:06;21.90;99.90
18721;DHT22;9489;50.948;3.114;2022-08-21T18:50:34;21.90;99.90
18721;DHT22;9489;50.948;3.114;2022-08-21T18:53:00;21.90;99.90
18721;DHT22;9489;50.948;3.114;2022-08-21T18:55:26;21.90;99.90
18721;DHT22;9489;50.948;3.114;2022-08-21T18:57:57;21.90;99.90
18721;DHT22;9489;50.948;3.114;2022-08-21T19:00:29;21.90;99.90
18721;DHT22;9489;50.948;3.114;2022-08-21T19:02:55;21.70;99.90
18721;DHT22;9489;50.948;3.114;2022-08-21T19:05:22;21.70;99.90
18721;DHT22;9489;50.948;3.114;2022-08-21T19:07:48;21.70;99.90
18721;DHT22;9489;50.948;3.114;2022-08-21T19:10:15;21.70;99.90
18721;DHT22;9489;50.948;3.114;2022-08-21T19:12:41;21.70;99.90
18721;DHT22;9489;50.948;3.114;2022-08-21T19:15:12;21.70;99.90
18721;DHT22;9489;50.948;3.114;2022-08-21T19:17:38;21.70;99.90
18721;DHT22;9489;50.948;3.114;2022-08-21T19:20:10;21.60;99.90
18721;DHT22;9489;50.948;3.114;2022-08-21T19:22:36;21.60;99.90
18721;DHT22;9489;50.948;3.114;2022-08-21T19:25:03;21.60;99.90
18721;DHT22;9489;50.948;3.114;2022-08-21T19:27:29;21.50;99.90
18721;DHT22;9489;50.948;3.114;2022-08-21T19:29:54;21.50;99.90
18721;DHT22;9489;50.948;3.114;2022-08-21T19:32:20;21.50;99.90
18721;DHT22;9489;50.948;3.114;2022-08-21T19:34:45;21.50;99.90
18721;DHT22;9489;50.948;3.114;2022-08-21T19:37:12;21.50;99.90
18721;DHT22;9489;50.948;3.114;2022-08-21T19:39:41;21.50;99.90
18721;DHT22;9489;50.948;3.114;2022-08-21T19:42:07;21.50;99.90
18721;DHT22;9489;50.948;3.114;2022-08-21T19:44:34;21.50;99.90
18721;DHT22;9489;50.948;3.114;2022-08-21T19:47:02;21.50;99.90
18721;DHT22;9489;50.948;3.114;2022-08-21T19:49:31;21.30;99.90
18721;DHT22;9489;50.948;3.114;2022-08-21T19:51:57;21.30;99.90
18721;DHT22;9489;50.948;3.114;2022-08-21T19:54:26;21.40;99.90
18721;DHT22;9489;50.948;3.114;2022-08-21T19:56:54;21.30;99.90
18721;DHT22;9489;50.948;3.114;2022-08-21T19:59:21;21.20;99.90
18721;DHT22;9489;50.948;3.114;2022-08-21T20:01:48;21.10;99.90
18721;DHT22;9489;50.948;3.114;2022-08-21T20:04:13;21.10;99.90
18721;DHT22;9489;50.948;3.114;2022-08-21T20:06:40;21.20;99.90
18721;DHT22;9489;50.948;3.114;2022-08-21T20:09:06;21.20;99.90
18721;DHT22;9489;50.948;3.114;2022-08-21T20:11:41;21.10;99.90
18721;DHT22;9489;50.948;3.114;2022-08-21T20:14:09;21.00;99.90
18721;DHT22;9489;50.948;3.114;2022-08-21T20:16:37;21.00;99.90
18721;DHT22;9489;50.948;3.114;2022-08-21T20:19:05;21.00;99.90
18721;DHT22;9489;50.948;3.114;2022-08-21T20:21:33;20.90;99.90
18721;DHT22;9489;50.948;3.114;2022-08-21T20:24:00;21.00;99.90
18721;DHT22;9489;50.948;3.114;2022-08-21T20:26:25;20.90;99.90
18721;DHT22;9489;50.948;3.114;2022-08-21T20:28:52;20.90;99.90
18721;DHT22;9489;50.948;3.114;2022-08-21T20:31:18;20.90;99.90
18721;DHT22;9489;50.948;3.114;2022-08-21T20:33:46;20.90;99.90
18721;DHT22;9489;50.948;3.114;2022-08-21T20:36:12;20.90;99.90
18721;DHT22;9489;50.948;3.114;2022-08-21T20:38:38;20.90;99.90
18721;DHT22;9489;50.948;3.114;2022-08-21T20:41:04;20.90;99.90
18721;DHT22;9489;50.948;3.114;2022-08-21T20:43:34;20.80;99.90
18721;DHT22;9489;50.948;3.114;2022-08-21T20:46:00;20.70;99.90
18721;DHT22;9489;50.948;3.114;2022-08-21T20:48:35;20.80;99.90
18721;DHT22;9489;50.948;3.114;2022-08-21T20:53:45;20.70;99.90
18721;DHT22;9489;50.948;3.114;2022-08-21T20:56:31;20.70;99.90
18721;DHT22;9489;50.948;3.114;2022-08-21T20:59:09;20.70;99.90
18721;DHT22;9489;50.948;3.114;2022-08-21T21:01:38;20.70;99.90
18721;DHT22;9489;50.948;3.114;2022-08-21T21:04:12;20.70;99.90
18721;DHT22;9489;50.948;3.114;2022-08-21T21:06:41;20.70;99.90
18721;DHT22;9489;50.948;3.114;2022-08-21T21:09:11;20.70;99.90
18721;DHT22;9489;50.948;3.114;2022-08-21T21:11:44;20.70;99.90
18721;DHT22;9489;50.948;3.114;2022-08-21T21:14:16;20.80;99.90
18721;DHT22;9489;50.948;3.114;2022-08-21T21:16:48;20.70;99.90
18721;DHT22;9489;50.948;3.114;2022-08-21T21:22:06;20.80;99.90
18721;DHT22;9489;50.948;3.114;2022-08-21T21:24:59;20.80;99.90
18721;DHT22;9489;50.948;3.114;2022-08-21T21:27:30;20.70;99.90
18721;DHT22;9489;50.948;3.114;2022-08-21T21:30:35;20.70;99.90
18721;DHT22;9489;50.948;3.114;2022-08-21T21:33:01;20.70;99.90
18721;DHT22;9489;50.948;3.114;2022-08-21T21:35:36;20.80;99.90
18721;DHT22;9489;50.948;3.114;2022-08-21T21:38:23;20.70;99.90
18721;DHT22;9489;50.948;3.114;2022-08-21T21:41:03;20.70;99.90
18721;DHT22;9489;50.948;3.114;2022-08-21T21:43:59;20.60;99.90
18721;DHT22;9489;50.948;3.114;2022-08-21T21:49:33;20.50;99.90
18721;DHT22;9489;50.948;3.114;2022-08-21T22:00:32;20.30;99.90
18721;DHT22;9489;50.948;3.114;2022-08-21T22:03:07;20.30;99.90
18721;DHT22;9489;50.948;3.114;2022-08-21T22:08:18;20.30;99.90
18721;DHT22;9489;50.948;3.114;2022-08-21T22:10:55;20.30;99.90
18721;DHT22;9489;50.948;3.114;2022-08-21T22:13:54;20.30;99.90
18721;DHT22;9489;50.948;3.114;2022-08-21T22:16:22;20.30;99.90
18721;DHT22;9489;50.948;3.114;2022-08-21T22:18:53;20.30;99.90
18721;DHT22;9489;50.948;3.114;2022-08-21T22:21:26;20.30;99.90
18721;DHT22;9489;50.948;3.114;2022-08-21T22:23:59;20.20;99.90
18721;DHT22;9489;50.948;3.114;2022-08-21T22:26:37;20.20;99.90
18721;DHT22;9489;50.948;3.114;2022-08-21T22:29:08;20.20;99.90
18721;DHT22;9489;50.948;3.114;2022-08-21T22:31:34;20.20;99.90
18721;DHT22;9489;50.948;3.114;2022-08-21T22:36:31;20.20;99.90
18721;DHT22;9489;50.948;3.114;2022-08-21T22:38:58;20.20;99.90
18721;DHT22;9489;50.948;3.114;2022-08-21T22:41:28;20.20;99.90
18721;DHT22;9489;50.948;3.114;2022-08-21T22:46:52;20.20;99.90
18721;DHT22;9489;50.948;3.114;2022-08-21T22:49:23;20.20;99.90
18721;DHT22;9489;50.948;3.114;2022-08-21T22:51:56;20.20;99.90
18721;DHT22;9489;50.948;3.114;2022-08-21T22:54:35;20.10;99.90
18721;DHT22;9489;50.948;3.114;2022-08-21T22:57:06;20.10;99.90
18721;DHT22;9489;50.948;3.114;2022-08-21T22:59:35;20.10;99.90
18721;DHT22;9489;50.948;3.114;2022-08-21T23:02:23;20.00;99.90
18721;DHT22;9489;50.948;3.114;2022-08-21T23:04:50;20.10;99.90
18721;DHT22;9489;50.948;3.114;2022-08-21T23:07:40;20.10;99.90
18721;DHT22;9489;50.948;3.114;2022-08-21T23:12:40;19.90;99.90
18721;DHT22;9489;50.948;3.114;2022-08-21T23:15:11;19.80;99.90
18721;DHT22;9489;50.948;3.114;2022-08-21T23:18:04;19.80;99.90
18721;DHT22;9489;50.948;3.114;2022-08-21T23:20:55;19.70;99.90
18721;DHT22;9489;50.948;3.114;2022-08-21T23:23:29;19.70;99.90
18721;DHT22;9489;50.948;3.114;2022-08-21T23:26:16;19.70;99.90
18721;DHT22;9489;50.948;3.114;2022-08-21T23:31:34;19.70;99.90
18721;DHT22;9489;50.948;3.114;2022-08-21T23:34:18;19.70;99.90
18721;DHT22;9489;50.948;3.114;2022-08-21T23:37:25;19.70;99.90
18721;DHT22;9489;50.948;3.114;2022-08-21T23:43:30;19.70;99.90
18721;DHT22;9489;50.948;3.114;2022-08-21T23:46:22;19.70;99.90
18721;DHT22;9489;50.948;3.114;2022-08-21T23:48:58;19.80;99.90
18721;DHT22;9489;50.948;3.114;2022-08-21T23:51:34;19.70;99.90
18721;DHT22;9489;50.948;3.114;2022-08-21T23:58:03;19.70;99.90
